Owyhee, Nevada
Current Conditions -  °F | °C
As of 3:58 AM on Thursday 18 Dec 2014 (Local Time) from KMUO Reporting Station
Few Clouds Few Clouds  
Wind Chill: 23°   Ceiling: Unl
Heat Index: 33°   Visibility: 10mi
Dew Point: 28°   Wind: 15mph
Humidity: 84%   Direction: 110°ESE
Pressure: 30.06"   Gusts: NA
Location:  41.95°N, 116.09°W
Report Text: KMUO 181158Z AUTO 11013KT 10SM FEW070 00/M02 A3006 RMK AO2 SLP194 T00041020 10026 20001 51006
Loading
Personal Weather Stations






























Interactive Weather Map New forecast layout! Learn more

10-Day Weather Forecast

Advertisements
Track Severe Weather on mobile